TFFFTFFR

Guest
Details From TFFF - Martinique/Aime Cesaire Intl
To TFFR - Pointe a Pitre Le Raizet
Flight Number -
Tags decoded
Created
Modified
Stats Distance 186 nm / 345 km
Max Altitude 0 ft / 0 m
Waypoints 4
Social Downloads 3
Likes 0
Share VATSIM

Download

Looking for another format? Having issues loading an existing format? Contact us
Advertisement - Login to hide

Notes

Requested: TFFF BIRNO A632 TASAR TFFR

Route

TFFF BIRNO A632 TASAR TFFR

ID Type Via Altitude Latitude Longitude Leg Dist Tot Dist Heading (true) Name
O TFFF APT - 0 ft / 0 m 14.59103˚ -61.00317˚ - 0 nm - Martinique/Aime Cesaire Intl
BIRNO FIX - 0 ft / 0 m 14.36519˚ -60.21067˚ 48 nm 48 nm 106° / 106° -
TASAR FIX A632 (AWY-LO) 0 ft / 0 m 15.66778˚ -60.95444˚ 89 nm 137 nm 331° / 331° -
O TFFR APT - 0 ft / 0 m 16.26531˚ -61.53181˚ 48 nm 186 nm 317° / 317° Pointe a Pitre Le Raizet

Altitude Profile

Advertisement - Login to hide

Weather


0- 5 10 15 20 25 30 35+ Temperature / ° C

Clouds and Precipitation
Forecast for 2017-12-14 12:00 UTC. Updated an hour ago

Ground ~20,000 ft ~40,000 ft Winds

TFFF

Details ICAO TFFF (FDF)
Name Martinique/Aime Cesaire Intl
Region France (Guadeloupe, Martinique, Saint Barthélemy, Saint Martin)
Timezone America/Martinique (UTC-4.0)
Stats Elevation 16 ft / 5 m (AMSL)
Location 14.591032° -61.003173°
Runways 1
Magnetic Variation 15.058° W

METAR

TFFF 140800Z AUTO 05004KT 020V080 9999 SCT025 SCT050 23/21 Q1014 NOSIG

Decode

TAF

TAF TFFF 140500Z 1406/1506 VRB03KT 9999 SCT030 BECMG 1411/1413 08010KT

Decode

Departure Runways

ID Width Length Bearing (true) Bearing (mag) Surface Threshold Offset Overrun Length
09 148 ft / 45 m 9,852 ft / 3,003 m 79.93° 94.99° Asphalt 0 ft / 0 m 0 ft / 0 m
27 148 ft / 45 m 9,852 ft / 3,003 m 259.94° 275.00° Asphalt 820 ft / 250 m 948 ft / 289 m

TFFR

Details ICAO TFFR (PTP)
Name Pointe a Pitre Le Raizet
Region France (Guadeloupe, Martinique, Saint Barthélemy, Saint Martin)
Timezone America/Guadeloupe (UTC-4.0)
Stats Elevation 35 ft / 11 m (AMSL)
Location 16.265306° -61.531808°
Runways 1
Magnetic Variation 14.857° W

METAR

TFFR 140800Z AUTO 00000KT CAVOK 22/20 Q1015 NOSIG

Decode

TAF

TAF TAF TFFR 132300Z 1400/1424 VRB03KT 9999 SCT030 BECMG 1411/1413 10008KT PROB30 TEMPO 1418/1424 4000 SHRA SCT015TCU

Decode

Destination Runways

ID Width Length Bearing (true) Bearing (mag) Surface Threshold Offset Overrun Length
11 148 ft / 45 m 11,513 ft / 3,509 m 100.94° 115.80° Asphalt 0 ft / 0 m 0 ft / 0 m
29 148 ft / 45 m 11,513 ft / 3,509 m 280.95° 295.81° Asphalt 0 ft / 0 m 0 ft / 0 m

Approach Navaids

Runway Type Ident Frequency Range Bearing (true) Bearing (mag) Slope Elevation
11 Localiser PP 110.30 MHz 18 nm / 33 km 100.95° 115.81° - 36 ft / 11 m (AMSL)
11 Glidescope PP 110.30 MHz 10 nm / 19 km 100.94° 115.80° 3.20° 36 ft / 11 m (AMSL)

Popular Alternatives